»·PEaware :: N360BG KGTF-KSAN

N360BG :: KGTF-KSAN

FLIGHT INFORMATION

Flight Status: Arrived
Operator: Privately registered:
United States
More flights under this callsign
Pilot: Brandon G. (13)
Aircraft: BOEING 757-200
(B752)
More flights by this aircraft type
Origin: KGTF Great Falls Intl
United States
Destination: KSAN San Diego Intl-Lindbergh
United States
More flights between these airports :: More routes between these airports
Route: +HLN VAANE Q842 WINEN Q73 LVELL LUCKI1
File this flight plan on PilotEdge
Remarks:
Altitude:
(Current/Filed)
40,000ft
Speed:
(Current/Filed)
425kts
Departed: 16-Sep-17 01:33 PM
Arrived: 16-Sep-17 03:53 PM
Distance/Time
Traveled:
924nm/2:19
Distance/Time
To Go:
Arrived

Flight Plot

Page will automatically refresh every two minutes.

Flight plan parsing failed; only flown route is shown


Map Options




Map Legend


Flown Route
Filed Route
Departure Airport
Arrival Airport
Navaid (VOR, NDB)
Fix

Horizontal Profiles

Position Reports

Time Latitude Longitude Heading Altitude Ground
Speed
16-Sep-17 13:02 47.486783 -111.354072 314 3662ft 0kts
16-Sep-17 13:03 47.486783 -111.354072 314 3662ft 0kts
16-Sep-17 13:04 47.486783 -111.354072 314 3662ft 0kts
16-Sep-17 13:05 47.486783 -111.354072 314 3662ft 0kts
16-Sep-17 13:06 47.486783 -111.354072 314 3662ft 0kts
16-Sep-17 13:07 47.486783 -111.354072 314 3662ft 0kts
16-Sep-17 13:08 47.486783 -111.354072 314 3662ft 0kts
16-Sep-17 13:09 47.486783 -111.354072 314 3662ft 0kts
16-Sep-17 13:10 47.486783 -111.354072 314 3662ft 0kts
16-Sep-17 13:11 47.486783 -111.354072 314 3662ft 0kts
16-Sep-17 13:12 47.486783 -111.354072 314 3662ft 0kts
16-Sep-17 13:13 47.486783 -111.354072 314 3662ft 0kts
16-Sep-17 13:14 47.486783 -111.354072 314 3662ft 0kts
16-Sep-17 13:15 47.486783 -111.354072 314 3662ft 0kts
16-Sep-17 13:16 47.486783 -111.354072 314 3662ft 0kts
16-Sep-17 13:17 47.486783 -111.354072 314 3662ft 0kts
16-Sep-17 13:18 47.486783 -111.354072 314 3662ft 0kts
16-Sep-17 13:19 47.486783 -111.354072 314 3662ft 0kts
16-Sep-17 13:20 47.486783 -111.354072 314 3662ft 0kts
16-Sep-17 13:21 47.486783 -111.354072 314 3662ft 0kts
16-Sep-17 13:22 47.486783 -111.354072 314 3662ft 0kts
16-Sep-17 13:23 47.486783 -111.354072 314 3662ft 0kts
16-Sep-17 13:24 47.486783 -111.354072 314 3662ft 0kts
16-Sep-17 13:25 47.486783 -111.354072 314 3662ft 0kts
16-Sep-17 13:26 47.486783 -111.354072 314 3662ft 0kts
16-Sep-17 13:27 47.486783 -111.354072 314 3662ft 0kts
16-Sep-17 13:28 47.486783 -111.354072 314 3662ft 0kts
16-Sep-17 13:29 47.486783 -111.354072 314 3662ft 0kts
16-Sep-17 13:30 47.486783 -111.354072 314 3662ft 0kts
16-Sep-17 13:31 47.486783 -111.354072 314 3662ft 0kts
16-Sep-17 13:32 47.486783 -111.354072 314 3662ft 0kts
16-Sep-17 13:33 47.486803 -111.354096 323 3662ft 0kts
16-Sep-17 13:34 47.488782 -111.352792 330 3651ft 0kts
16-Sep-17 13:35 47.488849 -111.352851 328 3652ft 1kts
16-Sep-17 13:36 47.488994 -111.354812 226 3660ft 11kts
16-Sep-17 13:37 47.463229 -111.392883 225 4932ft 199kts
16-Sep-17 13:38 47.408178 -111.441296 201 7719ft 263kts
16-Sep-17 13:39 47.338996 -111.482825 206 11016ft 295kts
16-Sep-17 13:40 47.255436 -111.537140 206 13394ft 359kts
16-Sep-17 13:41 47.163095 -111.597334 206 16658ft 381kts
16-Sep-17 13:42 47.066539 -111.660090 206 19368ft 404kts
16-Sep-17 13:43 46.961846 -111.727874 207 21737ft 429kts
16-Sep-17 13:44 46.853829 -111.797518 207 23849ft 450kts
16-Sep-17 13:45 46.738658 -111.871398 208 26088ft 462kts
16-Sep-17 13:46 46.619963 -111.947201 208 28076ft 473kts
16-Sep-17 13:47 46.499010 -112.023066 208 29896ft 483kts
16-Sep-17 13:48 46.375814 -112.099791 208 31574ft 491kts
16-Sep-17 13:49 46.251712 -112.175509 208 33791ft 481kts
16-Sep-17 13:50 46.133320 -112.248143 208 35927ft 469kts
16-Sep-17 13:51 46.015465 -112.320538 207 37562ft 465kts
16-Sep-17 13:52 45.899050 -112.391373 207 38987ft 461kts
16-Sep-17 13:53 45.784421 -112.460928 207 40018ft 459kts
16-Sep-17 13:54 45.669467 -112.530739 207 40014ft 455kts
16-Sep-17 13:55 45.554155 -112.600443 207 40015ft 455kts
16-Sep-17 13:56 45.441650 -112.668135 206 40021ft 456kts
16-Sep-17 13:57 45.325705 -112.735303 200 40017ft 459kts
16-Sep-17 13:58 45.197545 -112.743041 181 40020ft 471kts
16-Sep-17 13:59 45.067399 -112.735552 181 40021ft 471kts
16-Sep-17 14:00 44.936866 -112.726693 181 40018ft 471kts
16-Sep-17 14:01 44.810518 -112.717911 181 40020ft 471kts
16-Sep-17 14:02 44.680520 -112.708824 182 40020ft 470kts
16-Sep-17 14:03 44.550562 -112.699368 181 40019ft 471kts
16-Sep-17 14:04 44.420747 -112.689071 181 40021ft 470kts
16-Sep-17 14:05 44.290361 -112.679911 182 40041ft 471kts
16-Sep-17 14:06 44.160664 -112.671445 183 40030ft 469kts
16-Sep-17 14:07 44.030942 -112.662356 182 40031ft 470kts
16-Sep-17 14:08 43.901113 -112.653427 182 40031ft 470kts
16-Sep-17 14:09 43.774007 -112.644837 182 40030ft 470kts
16-Sep-17 14:10 43.644564 -112.636413 183 40031ft 468kts
16-Sep-17 14:11 43.515176 -112.628378 183 40031ft 469kts
16-Sep-17 14:12 43.385520 -112.619372 183 40033ft 469kts
16-Sep-17 14:13 43.255923 -112.610785 182 40023ft 469kts
16-Sep-17 14:14 43.126893 -112.602153 183 40021ft 467kts
16-Sep-17 14:15 42.997592 -112.594116 183 40023ft 467kts
16-Sep-17 14:16 42.871551 -112.586191 182 40022ft 467kts
16-Sep-17 14:17 42.742495 -112.576709 183 40022ft 467kts
16-Sep-17 14:18 42.613918 -112.568838 183 40023ft 465kts
16-Sep-17 14:19 42.485157 -112.560787 183 40023ft 465kts
16-Sep-17 14:20 42.356498 -112.552533 183 40022ft 465kts
16-Sep-17 14:21 42.227772 -112.544110 182 40015ft 464kts
16-Sep-17 14:22 42.099596 -112.535213 183 39996ft 464kts
16-Sep-17 14:23 41.970924 -112.527024 184 39995ft 463kts
16-Sep-17 14:24 41.847519 -112.528205 186 40004ft 460kts
16-Sep-17 14:25 41.720264 -112.529548 186 40003ft 458kts
16-Sep-17 14:26 41.593386 -112.531214 186 40005ft 458kts
16-Sep-17 14:27 41.466739 -112.532220 186 40005ft 458kts
16-Sep-17 14:28 41.339928 -112.533935 186 40004ft 458kts
16-Sep-17 14:29 41.212951 -112.537066 187 39996ft 456kts
16-Sep-17 14:30 41.086894 -112.541483 187 39997ft 456kts
16-Sep-17 14:31 40.960494 -112.546169 187 39995ft 456kts
16-Sep-17 14:32 40.838832 -112.551316 188 39994ft 456kts
16-Sep-17 14:33 40.712245 -112.557121 187 39995ft 455kts
16-Sep-17 14:34 40.586361 -112.560962 188 39995ft 454kts
16-Sep-17 14:35 40.460405 -112.565789 187 39995ft 455kts
16-Sep-17 14:36 40.334494 -112.570569 188 39991ft 455kts
16-Sep-17 14:37 40.208470 -112.576221 187 39895ft 455kts
16-Sep-17 14:38 40.082768 -112.580459 186 39894ft 455kts
16-Sep-17 14:39 39.957526 -112.591030 200 39894ft 444kts
16-Sep-17 14:40 39.844086 -112.641056 204 39895ft 440kts
16-Sep-17 14:41 39.729125 -112.694274 204 39904ft 440kts
16-Sep-17 14:42 39.613833 -112.747001 204 39956ft 440kts
16-Sep-17 14:43 39.499116 -112.799757 204 39956ft 441kts
16-Sep-17 14:44 39.384302 -112.852196 204 39955ft 441kts
16-Sep-17 14:45 39.268981 -112.904726 204 39954ft 441kts
16-Sep-17 14:46 39.153854 -112.957275 204 39955ft 442kts
16-Sep-17 14:47 39.038549 -113.009633 204 39953ft 442kts
16-Sep-17 14:48 38.923231 -113.061687 204 39940ft 442kts
16-Sep-17 14:49 38.811524 -113.111591 204 39935ft 442kts
16-Sep-17 14:50 38.715326 -113.154683 203 39934ft 443kts
16-Sep-17 14:51 38.580292 -113.214931 203 39995ft 443kts
16-Sep-17 14:52 38.464044 -113.266619 203 39993ft 443kts
16-Sep-17 14:53 38.367602 -113.309378 203 39992ft 443kts
16-Sep-17 14:54 38.251574 -113.360660 203 39991ft 443kts
16-Sep-17 14:55 38.115651 -113.420522 203 39990ft 445kts
16-Sep-17 14:56 37.999666 -113.471402 203 40000ft 445kts
16-Sep-17 14:57 37.900853 -113.508396 195 40003ft 449kts
16-Sep-17 14:58 37.781748 -113.537583 194 40001ft 449kts
16-Sep-17 14:59 37.659363 -113.566776 194 40002ft 450kts
16-Sep-17 15:00 37.537061 -113.596572 194 39998ft 450kts
16-Sep-17 15:01 37.414665 -113.625898 194 39863ft 450kts
16-Sep-17 15:02 37.294302 -113.654104 193 40025ft 451kts
16-Sep-17 15:03 37.171955 -113.683118 193 40028ft 452kts
16-Sep-17 15:04 37.049346 -113.713566 199 40026ft 449kts
16-Sep-17 15:05 36.933340 -113.768653 203 40028ft 448kts
16-Sep-17 15:06 36.820200 -113.823194 203 40006ft 448kts
16-Sep-17 15:07 36.704496 -113.878892 203 39993ft 450kts
16-Sep-17 15:08 36.590017 -113.938369 206 39991ft 448kts
16-Sep-17 15:09 36.476482 -114.000847 206 39990ft 448kts
16-Sep-17 15:10 36.367246 -114.070733 213 39967ft 446kts
16-Sep-17 15:11 36.262236 -114.150944 213 39962ft 446kts
16-Sep-17 15:12 36.157040 -114.231374 213 39961ft 446kts
16-Sep-17 15:13 36.059891 -114.322116 229 39968ft 443kts
16-Sep-17 15:14 35.977911 -114.434696 229 39962ft 443kts
16-Sep-17 15:15 35.897432 -114.545412 229 39958ft 444kts
16-Sep-17 15:16 35.816828 -114.655868 229 39961ft 443kts
16-Sep-17 15:17 35.734626 -114.769016 229 39964ft 444kts
16-Sep-17 15:18 35.652254 -114.881528 229 39964ft 444kts
16-Sep-17 15:19 35.570162 -114.993767 229 39963ft 444kts
16-Sep-17 15:20 35.477252 -115.090902 205 39992ft 451kts
16-Sep-17 15:21 35.359377 -115.142677 201 39859ft 452kts
16-Sep-17 15:22 35.240824 -115.192271 201 39862ft 452kts
16-Sep-17 15:23 35.124520 -115.240689 201 39861ft 452kts
16-Sep-17 15:24 35.006080 -115.289313 201 39870ft 452kts
16-Sep-17 15:25 34.890803 -115.336858 201 39870ft 452kts
16-Sep-17 15:26 34.772131 -115.385740 201 39870ft 452kts
16-Sep-17 15:27 34.653761 -115.434354 201 39869ft 452kts
16-Sep-17 15:28 34.535297 -115.482963 201 39983ft 452kts
16-Sep-17 15:29 34.416594 -115.531361 201 39978ft 452kts
16-Sep-17 15:30 34.302526 -115.577765 202 39463ft 423kts
16-Sep-17 15:31 34.192090 -115.623537 205 37471ft 420kts
16-Sep-17 15:32 34.103570 -115.666008 204 35747ft 422kts
16-Sep-17 15:33 33.993912 -115.717463 203 33533ft 428kts
16-Sep-17 15:34 33.889930 -115.766874 204 31406ft 435kts
16-Sep-17 15:35 33.778041 -115.821740 203 29041ft 437kts
16-Sep-17 15:36 33.667141 -115.874122 202 26869ft 424kts
16-Sep-17 15:37 33.559303 -115.924346 203 24733ft 412kts
16-Sep-17 15:38 33.476758 -116.012349 234 23825ft 403kts
16-Sep-17 15:39 33.413027 -116.119780 234 22092ft 393kts
16-Sep-17 15:40 33.352082 -116.224083 232 19215ft 376kts
16-Sep-17 15:41 33.266994 -116.291375 206 17434ft 372kts
16-Sep-17 15:42 33.175735 -116.345047 206 15488ft 364kts
16-Sep-17 15:43 33.087023 -116.396963 206 13754ft 350kts
16-Sep-17 15:44 33.002057 -116.448495 216 12318ft 326kts
16-Sep-17 15:45 32.932612 -116.517734 220 10666ft 324kts
16-Sep-17 15:46 32.869101 -116.581671 220 9891ft 284kts
16-Sep-17 15:47 32.810083 -116.641086 219 8945ft 271kts
16-Sep-17 15:48 32.760469 -116.705821 239 8038ft 274kts
16-Sep-17 15:49 32.723398 -116.783331 239 6633ft 263kts
16-Sep-17 15:50 32.693482 -116.860902 248 5825ft 239kts
16-Sep-17 15:51 32.673281 -116.930719 264 4714ft 222kts
16-Sep-17 15:52 32.687224 -116.998645 284 3436ft 204kts
16-Sep-17 15:53 32.701094 -117.056187 286 2367ft 163kts
16-Sep-17 15:54 32.712905 -117.104460 284 1719ft 138kts
16-Sep-17 15:55 32.722803 -117.145276 284 692ft 126kts
16-Sep-17 15:56 32.732429 -117.185049 285 24ft 112kts
16-Sep-17 15:57 32.734597 -117.198093 119 21ft 11kts
16-Sep-17 15:58 32.733298 -117.191578 30 25ft 13kts
16-Sep-17 15:59 32.735105 -117.188649 19 25ft 0kts
16-Sep-17 16:00 32.735105 -117.188649 19 25ft 0kts
16-Sep-17 16:01 32.735105 -117.188649 19 25ft 0kts
16-Sep-17 16:02 32.735105 -117.188649 19 25ft 0kts
16-Sep-17 16:03 32.735105 -117.188649 19 25ft 0kts
16-Sep-17 16:04 32.735105 -117.188649 19 25ft 0kts
16-Sep-17 16:05 32.735105 -117.188649 19 25ft 0kts
16-Sep-17 16:06 32.735105 -117.188649 19 25ft 0kts
16-Sep-17 16:07 32.735105 -117.188649 19 25ft 0kts
16-Sep-17 16:08 32.735105 -117.188649 19 25ft 0kts
16-Sep-17 16:09 32.735105 -117.188649 19 25ft 0kts
16-Sep-17 16:10 32.735105 -117.188649 19 25ft 0kts
16-Sep-17 16:11 32.735105 -117.188649 19 25ft 0kts

Navigation Log

Ident Type
Flight plan parsing failed, navigation log unavailable